createdAt,value
2018-08-04T00:02:15.865Z,23.60
2018-08-04T00:04:44.000Z,23.50
2018-08-04T00:07:12.126Z,23.20
2018-08-04T00:09:40.269Z,23.20
2018-08-04T00:12:08.411Z,23.00
2018-08-04T00:14:36.528Z,23.00
2018-08-04T00:17:04.912Z,23.10
2018-08-04T00:19:33.041Z,23.10
2018-08-04T00:22:01.176Z,23.10
2018-08-04T00:24:29.307Z,23.10
2018-08-04T00:26:57.422Z,23.20
2018-08-04T00:29:25.644Z,23.20
2018-08-04T00:31:53.762Z,23.30
2018-08-04T00:34:21.928Z,23.40
2018-08-04T00:36:50.051Z,23.30
2018-08-04T00:39:18.172Z,23.30
2018-08-04T00:41:46.335Z,23.30
2018-08-04T00:44:14.469Z,23.30
2018-08-04T00:46:42.594Z,23.30
2018-08-04T00:49:10.702Z,23.40
2018-08-04T00:51:38.811Z,23.30
2018-08-04T00:54:06.928Z,23.30
2018-08-04T00:56:35.055Z,23.40
2018-08-04T00:59:03.197Z,23.40
2018-08-04T01:01:31.329Z,23.40
2018-08-04T01:03:59.499Z,23.40
2018-08-04T01:06:27.635Z,23.40
2018-08-04T01:08:55.756Z,23.40
2018-08-04T01:11:23.912Z,23.40
2018-08-04T01:13:52.318Z,23.40
2018-08-04T01:16:20.550Z,23.40
2018-08-04T01:18:48.658Z,23.40
2018-08-04T01:21:16.769Z,23.40
2018-08-04T01:23:44.902Z,23.30
2018-08-04T01:26:13.035Z,23.40
2018-08-04T01:28:41.867Z,23.30
2018-08-04T01:31:10.031Z,23.30
2018-08-04T01:33:38.160Z,23.30
2018-08-04T01:36:06.282Z,23.30
2018-08-04T01:38:34.404Z,23.20
2018-08-04T01:41:02.531Z,23.10
2018-08-04T01:43:30.640Z,23.10
2018-08-04T01:45:58.784Z,22.90
2018-08-04T01:48:26.919Z,22.90
2018-08-04T01:50:55.333Z,23.00
2018-08-04T01:53:23.459Z,23.00
2018-08-04T01:55:51.615Z,23.00
2018-08-04T01:58:19.741Z,23.00
2018-08-04T02:00:47.889Z,23.00
2018-08-04T02:03:15.998Z,23.00
2018-08-04T02:05:44.131Z,22.90
2018-08-04T02:08:12.299Z,22.90
2018-08-04T02:10:40.472Z,22.90
2018-08-04T02:13:08.784Z,22.80
2018-08-04T02:15:36.904Z,22.60
2018-08-04T02:18:05.127Z,22.60
2018-08-04T02:20:33.518Z,22.60
2018-08-04T02:23:01.759Z,22.70
2018-08-04T02:25:29.878Z,22.70
2018-08-04T02:27:58.001Z,22.80
2018-08-04T02:30:26.127Z,22.90
2018-08-04T02:35:22.260Z,22.90
2018-08-04T02:37:50.408Z,22.90
2018-08-04T02:40:18.569Z,22.90
2018-08-04T02:42:46.674Z,22.90
2018-08-04T02:45:14.808Z,22.90
2018-08-04T02:47:42.939Z,22.90
2018-08-04T02:52:39.005Z,22.80
2018-08-04T02:55:07.117Z,22.80
2018-08-04T02:57:35.242Z,22.80
2018-08-04T03:00:03.387Z,22.70
2018-08-04T03:02:31.505Z,22.70
2018-08-04T03:04:59.618Z,22.70
2018-08-04T03:07:27.760Z,22.70
2018-08-04T03:09:55.878Z,22.70
2018-08-04T03:12:24.017Z,22.70
2018-08-04T03:14:52.138Z,22.60
2018-08-04T03:17:20.273Z,22.60
2018-08-04T03:19:48.397Z,22.50
2018-08-04T03:22:16.523Z,22.50
2018-08-04T03:24:44.751Z,22.40
2018-08-04T03:27:12.959Z,22.40
2018-08-04T03:29:41.131Z,22.30
2018-08-04T03:32:09.287Z,22.40
2018-08-04T03:34:37.631Z,22.40
2018-08-04T03:37:05.782Z,22.30
2018-08-04T03:39:33.895Z,22.20
2018-08-04T03:42:02.029Z,22.20
2018-08-04T03:44:30.187Z,21.90
2018-08-04T03:49:51.422Z,21.90
2018-08-04T03:52:19.580Z,21.90
2018-08-04T03:54:47.707Z,21.90
2018-08-04T03:57:15.850Z,21.90
2018-08-04T03:59:44.224Z,21.90
2018-08-04T04:02:12.400Z,22.00
2018-08-04T04:04:40.567Z,22.00
2018-08-04T04:07:08.757Z,22.00
2018-08-04T04:09:36.883Z,21.90
2018-08-04T04:12:05.067Z,21.90
2018-08-04T04:14:33.175Z,21.80
2018-08-04T04:17:01.304Z,21.80
2018-08-04T04:19:29.449Z,21.80
2018-08-04T04:21:57.599Z,21.80
2018-08-04T04:24:25.726Z,21.80
2018-08-04T04:26:53.993Z,21.90
2018-08-04T04:29:22.172Z,21.90
2018-08-04T04:31:50.313Z,21.80
2018-08-04T04:34:18.462Z,21.80
2018-08-04T04:36:46.599Z,21.80
2018-08-04T04:39:14.723Z,21.80
2018-08-04T04:41:42.839Z,21.90
2018-08-04T04:44:10.963Z,21.90
2018-08-04T04:46:40.320Z,21.90
2018-08-04T04:49:10.858Z,21.90
2018-08-04T04:51:39.435Z,21.90
2018-08-04T04:54:07.575Z,21.90
2018-08-04T04:56:35.691Z,22.00
2018-08-04T04:59:03.939Z,22.00
2018-08-04T05:01:32.077Z,22.00
2018-08-04T05:04:00.263Z,22.00
2018-08-04T05:06:28.704Z,22.00
2018-08-04T05:08:56.889Z,22.00
2018-08-04T05:11:25.004Z,22.00
2018-08-04T05:13:53.210Z,22.00
2018-08-04T05:16:21.329Z,22.00
2018-08-04T05:18:49.478Z,22.00
2018-08-04T05:21:17.571Z,22.20
2018-08-04T05:23:45.694Z,22.20
2018-08-04T05:26:13.810Z,22.30
2018-08-04T05:28:41.928Z,22.40
2018-08-04T05:31:10.039Z,22.50
2018-08-04T05:33:38.166Z,22.60
2018-08-04T05:36:06.276Z,22.60
2018-08-04T05:38:34.408Z,22.60
2018-08-04T05:41:02.516Z,22.70
2018-08-04T05:43:30.744Z,22.70
2018-08-04T05:45:58.774Z,22.80
2018-08-04T05:48:26.884Z,22.90
2018-08-04T05:50:54.988Z,22.90
2018-08-04T05:53:23.161Z,22.90
2018-08-04T05:55:51.279Z,23.00
2018-08-04T05:58:19.447Z,23.10
2018-08-04T06:00:47.574Z,23.20
2018-08-04T06:03:15.748Z,23.10
2018-08-04T06:05:43.805Z,23.00
2018-08-04T06:08:11.917Z,23.10
2018-08-04T06:10:40.114Z,23.30
2018-08-04T06:13:08.287Z,23.30
2018-08-04T06:15:36.403Z,23.50
2018-08-04T06:18:04.522Z,23.60
2018-08-04T06:20:36.095Z,23.70
2018-08-04T06:23:04.198Z,23.90
2018-08-04T06:25:32.350Z,23.90
2018-08-04T06:28:00.466Z,23.80
2018-08-04T06:30:28.656Z,23.90
2018-08-04T06:32:56.761Z,24.20
2018-08-04T06:35:24.865Z,24.10
2018-08-04T06:40:20.959Z,24.20
2018-08-04T06:42:49.101Z,24.40
2018-08-04T06:45:17.223Z,24.60
2018-08-04T06:47:45.335Z,24.80
2018-08-04T06:50:13.461Z,25.10
2018-08-04T06:52:41.613Z,25.20
2018-08-04T06:55:09.694Z,25.40
2018-08-04T06:57:37.820Z,25.70
2018-08-04T07:00:06.383Z,25.90
2018-08-04T07:02:34.516Z,26.00
2018-08-04T07:05:02.638Z,26.20
2018-08-04T07:07:30.772Z,26.30
2018-08-04T07:09:58.892Z,26.50
2018-08-04T07:12:27.008Z,26.70
2018-08-04T07:14:55.131Z,27.00
2018-08-04T07:17:23.227Z,27.20
2018-08-04T07:19:51.428Z,27.30
2018-08-04T07:22:19.535Z,27.30
2018-08-04T07:24:49.379Z,27.60
2018-08-04T07:27:17.544Z,27.70
2018-08-04T07:29:46.941Z,27.90
2018-08-04T07:32:15.053Z,28.00
2018-08-04T07:34:44.798Z,28.20
2018-08-04T07:37:12.891Z,28.40
2018-08-04T07:39:41.006Z,28.50
2018-08-04T07:42:09.157Z,28.70
2018-08-04T07:44:37.275Z,28.50
2018-08-04T07:47:05.378Z,28.40
2018-08-04T07:49:33.506Z,28.40
2018-08-04T07:52:01.612Z,28.20
2018-08-04T07:54:29.810Z,28.20
2018-08-04T07:56:57.920Z,28.20
2018-08-04T07:59:26.098Z,28.30
2018-08-04T08:01:54.239Z,28.30
2018-08-04T08:04:22.370Z,28.20
2018-08-04T08:06:50.477Z,28.20
2018-08-04T08:09:18.613Z,28.40
2018-08-04T08:11:46.732Z,28.50
2018-08-04T08:14:14.849Z,28.60
2018-08-04T08:16:42.942Z,28.60
2018-08-04T08:19:11.056Z,28.60
2018-08-04T08:21:39.147Z,28.70
2018-08-04T08:24:07.264Z,28.70
2018-08-04T08:26:35.371Z,28.70
2018-08-04T08:29:03.470Z,28.80
2018-08-04T08:31:31.585Z,28.90
2018-08-04T08:33:59.693Z,28.90
2018-08-04T08:36:27.803Z,28.90
2018-08-04T08:38:55.890Z,29.00
2018-08-04T08:41:24.023Z,29.10
2018-08-04T08:43:52.180Z,29.10
2018-08-04T08:46:20.284Z,29.20
2018-08-04T08:48:48.394Z,29.10
2018-08-04T08:51:16.539Z,29.00
2018-08-04T08:53:44.736Z,29.00
2018-08-04T08:56:12.779Z,29.00
2018-08-04T08:58:40.899Z,29.10
2018-08-04T09:01:09.003Z,29.10
2018-08-04T09:03:37.098Z,29.20
2018-08-04T09:06:05.198Z,29.20
2018-08-04T09:08:33.322Z,29.30
2018-08-04T09:11:01.411Z,29.30
2018-08-04T09:13:29.559Z,29.40
2018-08-04T09:15:57.655Z,29.40
2018-08-04T09:18:25.856Z,29.50
2018-08-04T09:20:53.959Z,29.60
2018-08-04T09:23:22.059Z,29.70
2018-08-04T09:25:50.180Z,29.80
2018-08-04T09:28:18.269Z,29.70
2018-08-04T09:30:46.408Z,29.70
2018-08-04T09:33:14.523Z,29.60
2018-08-04T09:35:42.645Z,29.70
2018-08-04T09:38:10.757Z,29.80
2018-08-04T09:40:38.877Z,30.10
2018-08-04T09:43:07.003Z,30.10
2018-08-04T09:45:35.162Z,30.10
2018-08-04T09:48:03.274Z,30.10
2018-08-04T09:50:31.399Z,30.30
2018-08-04T09:52:59.487Z,30.20
2018-08-04T09:55:27.579Z,30.20
2018-08-04T09:57:55.695Z,30.20
2018-08-04T10:00:32.100Z,30.40
2018-08-04T10:03:00.587Z,30.60
2018-08-04T10:05:28.704Z,30.70
2018-08-04T10:07:56.785Z,30.80
2018-08-04T10:10:24.943Z,30.70
2018-08-04T10:12:53.087Z,30.70
2018-08-04T10:15:21.174Z,30.70
2018-08-04T10:17:49.288Z,30.80
2018-08-04T10:20:17.438Z,30.70
2018-08-04T10:22:45.503Z,30.70
2018-08-04T10:25:13.629Z,30.70
2018-08-04T10:27:41.796Z,30.80
2018-08-04T10:30:10.936Z,31.10
2018-08-04T10:32:39.171Z,31.30
2018-08-04T10:35:07.464Z,31.30
2018-08-04T10:37:37.175Z,31.40
2018-08-04T10:40:05.308Z,31.40
2018-08-04T10:42:33.399Z,31.30
2018-08-04T10:45:01.511Z,31.60
2018-08-04T10:47:29.612Z,31.70
2018-08-04T10:49:57.716Z,31.60
2018-08-04T10:52:25.838Z,31.80
2018-08-04T10:54:54.355Z,31.90
2018-08-04T10:57:22.478Z,32.10
2018-08-04T10:59:50.606Z,32.40
2018-08-04T11:02:18.713Z,32.70
2018-08-04T11:04:46.815Z,32.90
2018-08-04T11:07:14.918Z,33.10
2018-08-04T11:09:43.045Z,33.10
2018-08-04T11:12:11.143Z,33.00
2018-08-04T11:14:39.263Z,33.10
2018-08-04T11:17:07.419Z,33.30
2018-08-04T11:19:35.512Z,33.50
2018-08-04T11:22:03.612Z,33.60
2018-08-04T11:24:31.706Z,33.60
2018-08-04T11:26:59.829Z,33.60
2018-08-04T11:29:27.926Z,33.70
2018-08-04T11:31:56.017Z,33.60
2018-08-04T11:34:24.118Z,33.40
2018-08-04T11:36:52.268Z,33.30
2018-08-04T11:39:20.396Z,33.40
2018-08-04T11:41:48.480Z,33.40
2018-08-04T11:44:16.585Z,33.40
2018-08-04T11:46:44.683Z,33.40
2018-08-04T11:49:12.784Z,33.60
2018-08-04T11:51:40.975Z,33.70
2018-08-04T11:54:09.000Z,33.60
2018-08-04T11:56:37.119Z,33.80
2018-08-04T11:59:05.279Z,33.90
2018-08-04T12:01:33.395Z,33.90
2018-08-04T12:04:01.503Z,33.90
2018-08-04T12:06:29.598Z,33.70
2018-08-04T12:08:57.719Z,34.00
2018-08-04T12:11:25.819Z,34.10
2018-08-04T12:13:53.932Z,34.20
2018-08-04T12:16:22.073Z,34.20
2018-08-04T12:18:50.189Z,34.20
2018-08-04T12:21:18.290Z,34.00
2018-08-04T12:23:46.397Z,34.00
2018-08-04T12:26:14.497Z,34.00
2018-08-04T12:28:42.606Z,34.20
2018-08-04T12:31:10.699Z,34.20
2018-08-04T12:33:38.802Z,34.20
2018-08-04T12:36:06.901Z,34.10
2018-08-04T12:38:35.013Z,34.20
2018-08-04T12:41:03.107Z,34.10
2018-08-04T12:43:31.259Z,33.90
2018-08-04T12:45:59.367Z,33.90
2018-08-04T12:48:29.210Z,33.90
2018-08-04T12:50:58.516Z,33.90
2018-08-04T12:53:26.630Z,33.80
2018-08-04T12:55:54.712Z,33.80
2018-08-04T12:58:22.839Z,33.90
2018-08-04T13:00:51.336Z,33.90
2018-08-04T13:05:47.727Z,34.10
2018-08-04T13:08:15.814Z,34.00
2018-08-04T13:10:43.969Z,33.90
2018-08-04T13:13:12.079Z,33.90
2018-08-04T13:15:40.202Z,34.20
2018-08-04T13:18:08.297Z,34.20
2018-08-04T13:20:36.395Z,34.20
2018-08-04T13:23:04.505Z,34.20
2018-08-04T13:25:32.606Z,34.30
2018-08-04T13:28:00.721Z,34.40
2018-08-04T13:30:28.910Z,34.30
2018-08-04T13:32:56.920Z,34.30
2018-08-04T13:35:25.360Z,34.20
2018-08-04T13:37:53.501Z,34.20
2018-08-04T13:40:21.610Z,34.30
2018-08-04T13:42:49.741Z,34.50
2018-08-04T13:45:17.797Z,34.70
2018-08-04T13:47:45.895Z,34.90
2018-08-04T13:50:14.110Z,35.00
2018-08-04T13:52:42.159Z,35.10
2018-08-04T13:55:10.287Z,35.10
2018-08-04T13:57:38.379Z,35.10
2018-08-04T14:00:06.834Z,35.10
2018-08-04T14:02:35.149Z,35.10
2018-08-04T14:05:03.358Z,35.00
2018-08-04T14:07:31.460Z,34.70
2018-08-04T14:09:59.558Z,34.60
2018-08-04T14:12:27.702Z,34.50
2018-08-04T14:14:55.780Z,34.50
2018-08-04T14:17:23.911Z,34.50
2018-08-04T14:19:52.015Z,34.60
2018-08-04T14:22:20.110Z,34.60
2018-08-04T14:24:48.212Z,34.60
2018-08-04T14:27:16.321Z,34.50
2018-08-04T14:29:44.415Z,34.50
2018-08-04T14:32:12.527Z,34.40
2018-08-04T14:34:40.634Z,34.40
2018-08-04T14:37:08.726Z,34.40
2018-08-04T14:39:36.822Z,34.50
2018-08-04T14:42:05.040Z,34.50
2018-08-04T14:44:33.147Z,34.50
2018-08-04T14:47:01.265Z,34.70
2018-08-04T14:49:29.442Z,34.80
2018-08-04T14:51:57.601Z,34.70
2018-08-04T14:54:25.706Z,34.70
2018-08-04T14:56:53.806Z,34.80
2018-08-04T14:59:21.914Z,34.60
2018-08-04T15:01:50.023Z,34.60
2018-08-04T15:04:18.213Z,34.50
2018-08-04T15:06:46.303Z,34.20
2018-08-04T15:09:14.405Z,34.10
2018-08-04T15:11:42.492Z,34.10
2018-08-04T15:14:11.119Z,34.20
2018-08-04T15:16:39.254Z,34.30
2018-08-04T15:19:07.347Z,34.30
2018-08-04T15:21:35.481Z,34.40
2018-08-04T15:24:03.538Z,34.50
2018-08-04T15:26:31.894Z,34.50
2018-08-04T15:29:00.259Z,34.50
2018-08-04T15:31:28.352Z,34.60
2018-08-04T15:33:56.578Z,34.60
2018-08-04T15:36:24.666Z,34.70
2018-08-04T15:38:52.854Z,34.80
2018-08-04T15:41:20.950Z,34.60
2018-08-04T15:43:49.043Z,34.50
2018-08-04T15:46:17.148Z,34.40
2018-08-04T15:48:45.284Z,34.30
2018-08-04T15:51:13.373Z,34.10
2018-08-04T15:53:41.482Z,33.90
2018-08-04T15:56:09.587Z,33.90
2018-08-04T15:58:37.696Z,33.80
2018-08-04T16:01:05.808Z,33.90
2018-08-04T16:03:34.097Z,33.70
2018-08-04T16:06:02.191Z,33.80
2018-08-04T16:08:30.558Z,33.90
2018-08-04T16:10:58.657Z,34.00
2018-08-04T16:13:26.832Z,34.10
2018-08-04T16:15:54.962Z,34.20
2018-08-04T16:18:23.068Z,34.20
2018-08-04T16:20:51.192Z,34.20
2018-08-04T16:23:19.308Z,34.20
2018-08-04T16:25:47.416Z,34.20
2018-08-04T16:28:15.509Z,34.10
2018-08-04T16:30:43.595Z,34.00
2018-08-04T16:33:11.689Z,33.80
2018-08-04T16:35:40.610Z,33.60
2018-08-04T16:38:08.703Z,33.60
2018-08-04T16:40:36.795Z,33.30
2018-08-04T16:43:04.883Z,33.10
2018-08-04T16:45:32.987Z,32.90
2018-08-04T16:48:01.112Z,32.80
2018-08-04T16:50:30.834Z,32.70
2018-08-04T16:52:58.952Z,32.50
2018-08-04T16:55:27.069Z,32.40
2018-08-04T16:57:55.259Z,32.50
2018-08-04T17:00:23.403Z,32.40
2018-08-04T17:02:51.522Z,32.30
2018-08-04T17:05:19.638Z,32.20
2018-08-04T17:07:47.767Z,32.10
2018-08-04T17:10:15.856Z,32.00
2018-08-04T17:12:43.962Z,32.00
2018-08-04T17:15:12.062Z,31.80
2018-08-04T17:17:40.179Z,31.60
2018-08-04T17:20:08.272Z,31.30
2018-08-04T17:22:36.407Z,31.30
2018-08-04T17:25:04.527Z,31.30
2018-08-04T17:27:32.704Z,31.20
2018-08-04T17:30:00.823Z,31.10
2018-08-04T17:32:28.946Z,31.10
2018-08-04T17:34:57.066Z,31.10
2018-08-04T17:37:25.211Z,31.00
2018-08-04T17:39:54.395Z,31.00
2018-08-04T17:42:22.515Z,31.00
2018-08-04T17:44:50.612Z,31.00
2018-08-04T17:47:18.714Z,30.90
2018-08-04T17:49:46.898Z,30.80
2018-08-04T17:52:14.999Z,30.80
2018-08-04T17:54:43.098Z,30.70
2018-08-04T17:57:11.298Z,30.70
2018-08-04T17:59:39.346Z,30.60
2018-08-04T18:02:08.007Z,30.60
2018-08-04T18:04:36.257Z,30.60
2018-08-04T18:07:04.479Z,30.50
2018-08-04T18:09:32.577Z,30.40
2018-08-04T18:12:00.668Z,30.30
2018-08-04T18:14:28.776Z,30.30
2018-08-04T18:16:56.872Z,30.30
2018-08-04T18:19:24.951Z,30.30
2018-08-04T18:21:53.058Z,30.30
2018-08-04T18:24:21.165Z,30.20
2018-08-04T18:26:49.322Z,30.10
2018-08-04T18:29:17.439Z,30.10
2018-08-04T18:31:45.537Z,30.10
2018-08-04T18:34:13.652Z,30.00
2018-08-04T18:36:41.726Z,29.90
2018-08-04T18:39:10.340Z,29.90
2018-08-04T18:41:38.432Z,29.80
2018-08-04T18:44:06.526Z,29.80
2018-08-04T18:46:34.627Z,29.80
2018-08-04T18:49:02.743Z,29.70
2018-08-04T18:51:30.839Z,29.70
2018-08-04T18:53:58.934Z,29.60
2018-08-04T18:56:27.047Z,29.70
2018-08-04T18:58:55.170Z,29.60
2018-08-04T19:01:23.260Z,29.60
2018-08-04T19:03:51.365Z,29.50
2018-08-04T19:06:19.455Z,29.40
2018-08-04T19:11:15.455Z,29.20
2018-08-04T19:13:43.577Z,29.10
2018-08-04T19:18:45.016Z,29.00
2018-08-04T19:21:13.213Z,29.00
2018-08-04T19:23:41.333Z,29.00
2018-08-04T19:26:09.441Z,28.90
2018-08-04T19:28:37.664Z,28.90
2018-08-04T19:31:06.009Z,28.80
2018-08-04T19:33:34.209Z,28.80
2018-08-04T19:36:02.306Z,28.70
2018-08-04T19:38:30.422Z,28.60
2018-08-04T19:40:58.510Z,28.60
2018-08-04T19:43:26.691Z,28.40
2018-08-04T19:45:54.799Z,28.40
2018-08-04T19:48:22.914Z,28.30
2018-08-04T19:50:51.463Z,28.20
2018-08-04T19:53:19.578Z,28.10
2018-08-04T19:55:47.732Z,28.00
2018-08-04T19:58:15.851Z,28.00
2018-08-04T20:00:43.962Z,27.90
2018-08-04T20:03:12.070Z,27.70
2018-08-04T20:05:40.195Z,27.70
2018-08-04T20:08:08.301Z,27.60
2018-08-04T20:10:36.610Z,27.60
2018-08-04T20:13:04.831Z,27.60
2018-08-04T20:15:32.988Z,27.50
2018-08-04T20:18:01.367Z,27.50
2018-08-04T20:20:30.052Z,27.40
2018-08-04T20:22:58.159Z,27.30
2018-08-04T20:25:26.279Z,27.30
2018-08-04T20:27:55.434Z,27.20
2018-08-04T20:30:23.552Z,27.20
2018-08-04T20:32:52.544Z,27.10
2018-08-04T20:35:20.738Z,27.10
2018-08-04T20:37:48.862Z,27.10
2018-08-04T20:40:18.085Z,27.10
2018-08-04T20:42:46.247Z,27.00
2018-08-04T20:45:14.353Z,27.00
2018-08-04T20:47:42.943Z,27.00
2018-08-04T20:50:11.074Z,27.00
2018-08-04T20:52:39.187Z,27.00
2018-08-04T20:55:07.361Z,27.00
2018-08-04T20:57:35.511Z,26.90
2018-08-04T21:00:04.291Z,26.90
2018-08-04T21:02:32.448Z,26.80
2018-08-04T21:05:00.575Z,26.70
2018-08-04T21:07:28.707Z,26.70
2018-08-04T21:09:56.871Z,26.70
2018-08-04T21:12:25.055Z,26.60
2018-08-04T21:14:53.240Z,26.70
2018-08-04T21:17:21.372Z,26.60
2018-08-04T21:19:49.530Z,26.60
2018-08-04T21:22:17.750Z,26.50
2018-08-04T21:24:45.974Z,26.30
2018-08-04T21:27:14.808Z,26.30
2018-08-04T21:29:43.002Z,26.30
2018-08-04T21:32:11.167Z,26.30
2018-08-04T21:34:39.310Z,26.40
2018-08-04T21:37:07.488Z,26.30
2018-08-04T21:39:35.724Z,26.30
2018-08-04T21:42:04.027Z,26.30
2018-08-04T21:44:32.475Z,26.20
2018-08-04T21:47:00.505Z,26.20
2018-08-04T21:49:28.662Z,26.20
2018-08-04T21:51:56.771Z,26.10
2018-08-04T21:54:24.871Z,26.00
2018-08-04T21:56:53.004Z,26.00
2018-08-04T21:59:21.112Z,26.00
2018-08-04T22:01:55.636Z,26.00
2018-08-04T22:04:23.904Z,26.00
2018-08-04T22:08:02.188Z,26.00
2018-08-04T22:10:30.349Z,26.00
2018-08-04T22:12:58.510Z,26.00
2018-08-04T22:15:26.676Z,26.10
2018-08-04T22:17:54.985Z,26.10
2018-08-04T22:20:23.884Z,26.20
2018-08-04T22:22:52.254Z,26.10
2018-08-04T22:25:21.754Z,26.10
2018-08-04T22:27:49.999Z,26.20
2018-08-04T22:30:19.560Z,26.20
2018-08-04T22:32:48.171Z,26.20
2018-08-04T22:35:16.333Z,26.20
2018-08-04T22:37:44.544Z,26.10
2018-08-04T22:40:13.770Z,26.10
2018-08-04T22:42:42.879Z,26.10
2018-08-04T22:45:50.983Z,26.10
2018-08-04T22:48:19.577Z,26.00
2018-08-04T22:50:47.773Z,25.80
2018-08-04T22:53:16.422Z,25.70
2018-08-04T22:55:44.571Z,25.60
2018-08-04T22:58:12.682Z,25.60
2018-08-04T23:00:42.067Z,25.60
2018-08-04T23:03:10.547Z,25.60
2018-08-04T23:05:38.811Z,25.50
2018-08-04T23:08:07.338Z,25.40
2018-08-04T23:10:36.238Z,25.20
2018-08-04T23:13:04.529Z,25.20
2018-08-04T23:15:32.682Z,25.20
2018-08-04T23:20:29.872Z,25.10
2018-08-04T23:22:58.745Z,25.20
2018-08-04T23:27:54.846Z,25.10
2018-08-04T23:30:23.010Z,25.10
2018-08-04T23:32:52.171Z,25.10
2018-08-04T23:35:20.857Z,25.10
2018-08-04T23:37:49.339Z,24.90
2018-08-04T23:40:17.491Z,24.70
2018-08-04T23:42:45.703Z,24.70
2018-08-04T23:45:13.919Z,24.80
2018-08-04T23:47:42.152Z,24.70
2018-08-04T23:50:10.301Z,24.60
2018-08-04T23:52:38.519Z,24.60
2018-08-04T23:55:06.814Z,24.50
2018-08-04T23:57:34.962Z,24.50
